Time;durP1;ratioP1;P1;durP2;ratioP2;P2;SDS_P1;SDS_P2;PMS_P1;PMS_P2;Temp;Humidity;BMP_temperature;BMP_pressure;BME280_temperature;BME280_humidity;BME280_pressure;Samples;Min_cycle;Max_cycle;Signal;HPM_P1;HPM_P2
2022/06/24 18:06:48;;;;;;;4.65;3.60;;;;;;;28.40;32.79;100165.79;5220639;54;46284;-75
2022/06/24 18:12:01;;;;;;;5.37;1.92;;;;;;;28.25;32.95;100147.30;5061401;57;1132721;-75
2022/06/24 18:17:08;;;;;;;5.60;2.00;;;;;;;28.19;33.25;100155.05;5011213;58;1136907;-75
2022/06/24 18:22:14;;;;;;;5.08;2.20;;;;;;;28.09;33.68;100150.76;4979442;58;1137107;-74
2022/06/24 18:27:21;;;;;;;3.70;1.57;;;;;;;28.01;34.33;100146.52;5024879;58;1136983;-76
2022/06/24 18:32:28;;;;;;;8.75;1.40;;;;;;;27.96;34.66;100141.50;5028147;57;1136978;-75
2022/06/24 18:37:43;;;;;;;5.55;1.37;;;;;;;27.83;34.92;100140.43;5070991;57;1137057;-74
2022/06/24 18:42:49;;;;;;;4.10;1.60;;;;;;;27.74;35.17;100136.45;5099550;57;1137124;-74
2022/06/24 18:47:59;;;;;;;4.65;1.72;;;;;;;27.63;35.49;100138.97;5081554;57;1136873;-74
2022/06/24 18:53:09;;;;;;;2.10;1.80;;;;;;;27.42;36.28;100138.73;5108682;57;1136983;-76
2022/06/24 18:58:15;;;;;;;3.85;1.47;;;;;;;27.42;36.28;100138.73;5142222;56;1134948;-75
2022/06/24 19:03:20;;;;;;;8.63;1.52;;;;;;;27.31;36.66;100144.47;5135590;56;1134794;-75
2022/06/24 19:08:26;;;;;;;4.50;1.65;;;;;;;27.19;36.71;100153.16;5108971;57;1139062;-76
2022/06/24 19:13:31;;;;;;;6.37;1.93;;;;;;;27.14;36.93;100155.22;5065049;58;1138984;-77
2022/06/24 19:24:04;;;;;;;9.70;1.72;;;;;;;26.99;37.69;100172.50;5128897;57;1141365;-76
2022/06/24 19:29:10;;;;;;;3.33;2.35;;;;;;;26.92;38.18;100177.17;5129051;57;1139021;-76
2022/06/24 19:34:17;;;;;;;10.38;2.47;;;;;;;26.83;38.68;100175.87;5129113;57;1139051;-77
2022/06/24 19:39:23;;;;;;;7.78;2.62;;;;;;;26.68;39.39;100177.67;5143585;56;1141127;-74
2022/06/24 19:44:29;;;;;;;13.30;2.60;;;;;;;26.53;39.94;100182.17;5198792;56;1139062;-75
2022/06/24 19:49:35;;;;;;;6.50;3.70;;;;;;;26.40;40.53;100174.23;5148509;57;21698;-74
2022/06/24 19:54:41;;;;;;;15.25;4.30;;;;;;;26.28;40.84;100176.88;5105059;57;1134887;-74
2022/06/24 19:59:48;;;;;;;7.67;3.90;;;;;;;26.18;41.33;100179.82;5105976;57;1141189;-75
2022/06/24 20:10:17;;;;;;;8.35;3.15;;;;;;;26.01;42.34;100180.97;5103253;57;1139010;-74
2022/06/24 20:15:22;;;;;;;9.65;4.58;;;;;;;25.94;42.88;100182.95;5119790;57;1139043;-74
2022/06/24 20:20:28;;;;;;;13.30;6.33;;;;;;;25.83;43.10;100170.98;5123598;56;1139049;-74
2022/06/24 20:25:38;;;;;;;10.82;3.72;;;;;;;25.73;43.59;100165.80;5161544;56;1141054;-74
2022/06/24 20:30:42;;;;;;;16.65;3.85;;;;;;;25.61;43.94;100164.34;5158722;56;1141038;-74
2022/06/24 20:35:48;;;;;;;6.03;2.70;;;;;;;25.47;44.34;100158.78;5139013;56;1141169;-74
2022/06/24 20:40:56;;;;;;;6.78;2.37;;;;;;;25.41;44.51;100166.43;5175454;56;1138934;-73
2022/06/24 20:46:03;;;;;;;8.28;3.42;;;;;;;25.29;44.88;100165.00;5155360;56;1138959;-74
2022/06/24 20:51:09;;;;;;;13.35;6.85;;;;;;;25.14;45.46;100161.81;5151266;56;1138964;-74
2022/06/24 20:56:15;;;;;;;15.38;5.62;;;;;;;25.04;45.92;100165.56;5131173;57;1141299;-73
2022/06/24 21:01:21;;;;;;;10.95;5.35;;;;;;;24.96;46.30;100166.66;5131153;57;1141094;-73
2022/06/24 21:06:27;;;;;;;4.45;3.75;;;;;;;24.84;46.64;100164.33;5162808;56;1141112;-73
2022/06/24 21:11:32;;;;;;;10.13;3.50;;;;;;;24.73;47.29;100165.88;5190211;56;1139065;-73
2022/06/24 21:16:38;;;;;;;4.20;2.90;;;;;;;24.58;47.79;100169.42;5155718;57;1141097;-73
2022/06/24 21:21:44;;;;;;;6.55;2.80;;;;;;;24.46;48.48;100178.73;5155727;57;1138964;-73
2022/06/24 21:26:50;;;;;;;7.90;2.87;;;;;;;24.33;49.23;100175.28;5155821;57;1138994;-73
2022/06/24 21:31:56;;;;;;;10.98;4.58;;;;;;;24.22;49.96;100173.25;5155600;57;1138966;-73
2022/06/24 21:37:09;;;;;;;8.63;4.17;;;;;;;24.13;51.04;100176.73;5160449;56;1141573;-73
2022/06/24 21:42:15;;;;;;;8.78;3.72;;;;;;;24.03;51.17;100176.34;5184975;56;1139187;-73
2022/06/24 21:47:24;;;;;;;7.78;3.30;;;;;;;23.96;52.11;100176.39;5178953;56;1136943;-73
2022/06/24 21:52:29;;;;;;;11.20;3.35;;;;;;;23.83;52.68;100171.84;5156172;57;1137148;-73
2022/06/24 21:57:35;;;;;;;6.53;3.98;;;;;;;23.75;52.94;100176.67;5155643;57;1139008;-73
2022/06/24 22:02:41;;;;;;;10.45;3.20;;;;;;;23.60;53.44;100178.27;5158045;56;1136870;-74
2022/06/24 22:07:47;;;;;;;9.33;3.80;;;;;;;23.50;54.08;100185.44;5190874;56;1138973;-74
2022/06/24 22:12:53;;;;;;;9.60;3.72;;;;;;;23.49;54.23;100189.70;5209137;56;1136869;-73
2022/06/24 22:17:59;;;;;;;6.78;4.25;;;;;;;23.36;55.35;100187.03;5221354;56;1136897;-74
2022/06/24 22:23:05;;;;;;;6.33;3.30;;;;;;;23.27;55.12;100189.09;5221377;56;1136946;-74
2022/06/24 22:28:11;;;;;;;9.30;3.90;;;;;;;23.24;56.09;100192.73;5221284;56;1136996;-74
2022/06/24 22:33:16;;;;;;;3.98;2.83;;;;;;;23.17;56.33;100197.31;5221524;56;1137116;-74
2022/06/24 22:38:22;;;;;;;6.53;3.40;;;;;;;23.04;56.45;100192.77;5223600;56;1136852;-74
2022/06/24 22:43:28;;;;;;;7.53;3.27;;;;;;;22.92;57.70;100191.70;5242130;56;1136920;-74
2022/06/24 22:48:34;;;;;;;9.10;3.47;;;;;;;22.84;57.33;100192.75;5157763;56;1137023;-74
2022/06/24 22:53:40;;;;;;;3.65;3.15;;;;;;;22.76;58.67;100195.11;5156386;57;1136889;-74
2022/06/24 22:58:47;;;;;;;9.08;3.77;;;;;;;22.70;58.84;100208.05;5156085;57;1136856;-74
2022/06/24 23:03:52;;;;;;;7.87;3.37;;;;;;;22.57;59.89;100195.91;5156351;57;1136973;-73
2022/06/24 23:08:58;;;;;;;5.97;3.35;;;;;;;22.48;60.27;100201.67;5163848;56;1137081;-74
2022/06/24 23:14:04;;;;;;;8.35;3.80;;;;;;;22.44;59.92;100194.54;5171920;56;1134895;-74
2022/06/24 23:19:10;;;;;;;3.92;3.50;;;;;;;22.37;60.02;100190.47;5156398;57;1135100;-74
2022/06/24 23:24:16;;;;;;;7.95;3.45;;;;;;;22.32;61.09;100185.36;5154754;57;1217656;-74
2022/06/24 23:29:21;;;;;;;4.28;2.98;;;;;;;22.21;61.61;100185.44;5156154;57;1138941;-74
2022/06/24 23:34:27;;;;;;;3.60;3.00;;;;;;;22.15;61.85;100184.09;5156259;57;1138405;-73
2022/06/24 23:39:33;;;;;;;5.30;3.03;;;;;;;22.08;61.92;100187.58;5186106;56;1138911;-74
2022/06/24 23:44:39;;;;;;;4.43;3.30;;;;;;;22.05;61.31;100190.67;5226657;56;1138962;-73
2022/06/24 23:55:08;;;;;;;4.20;3.27;;;;;;;21.93;62.43;100180.65;5156158;57;1140977;-73
